createdAt,value
2022-12-15T00:07:10.665Z,11
2022-12-15T00:17:16.213Z,9
2022-12-15T00:27:20.716Z,9
2022-12-15T00:37:30.917Z,7
2022-12-15T00:47:31.725Z,7
2022-12-15T00:57:37.204Z,7
2022-12-15T01:07:43.617Z,8
2022-12-15T01:17:48.177Z,8
2022-12-15T01:27:54.673Z,7
2022-12-15T01:38:01.173Z,11
2022-12-15T01:48:06.327Z,10
2022-12-15T01:58:12.216Z,8
2022-12-15T02:08:20.175Z,10
2022-12-15T02:18:24.156Z,10
2022-12-15T02:28:29.763Z,11
2022-12-15T02:38:37.118Z,8
2022-12-15T02:48:41.022Z,8
2022-12-15T02:58:46.967Z,10
2022-12-15T03:08:51.940Z,10
2022-12-15T03:18:57.444Z,12
2022-12-15T03:29:03.136Z,11
2022-12-15T03:39:08.079Z,13
2022-12-15T03:49:12.725Z,10
2022-12-15T03:59:18.640Z,11
2022-12-15T04:09:25.865Z,9
2022-12-15T04:19:27.127Z,11
2022-12-15T04:29:32.306Z,12
2022-12-15T04:39:38.410Z,11
2022-12-15T04:49:43.782Z,10
2022-12-15T04:59:48.610Z,11
2022-12-15T05:09:58.393Z,12
2022-12-15T05:20:01.575Z,12
2022-12-15T05:30:06.486Z,11
2022-12-15T05:40:13.194Z,11
2022-12-15T05:50:18.858Z,14
2022-12-15T06:00:25.618Z,16
2022-12-15T06:10:31.580Z,16
2022-12-15T06:20:37.448Z,13
2022-12-15T06:30:42.488Z,18
2022-12-15T06:40:47.916Z,16
2022-12-15T06:50:53.054Z,9
2022-12-15T07:00:59.178Z,12
2022-12-15T07:11:04.845Z,46
2022-12-15T07:21:20.442Z,31
2022-12-15T07:31:25.546Z,15
2022-12-15T07:41:22.803Z,14
2022-12-15T07:51:45.688Z,15
2022-12-15T08:01:41.861Z,15
2022-12-15T08:11:45.952Z,18
2022-12-15T08:21:59.196Z,17
2022-12-15T08:32:04.413Z,19
2022-12-15T08:42:09.433Z,20
2022-12-15T08:52:14.921Z,22
2022-12-15T09:02:23.317Z,21
2022-12-15T09:12:29.332Z,53
2022-12-15T09:22:34.547Z,20
2022-12-15T09:32:44.723Z,22
2022-12-15T09:42:44.140Z,21
2022-12-15T09:52:57.312Z,21
2022-12-15T10:02:58.950Z,23
2022-12-15T10:09:04.689Z,19
2022-12-15T10:19:10.200Z,20
2022-12-15T10:28:19.902Z,23
2022-12-15T10:33:34.188Z,20
2022-12-15T10:43:30.924Z,18
2022-12-15T10:47:31.978Z,18
2022-12-15T10:57:37.264Z,20
2022-12-15T11:07:42.475Z,75
2022-12-15T11:17:49.447Z,10
2022-12-15T11:27:55.071Z,13
2022-12-15T11:38:04.774Z,12
2022-12-15T11:48:17.605Z,10
2022-12-15T11:58:09.578Z,18
2022-12-15T12:08:25.234Z,15
2022-12-15T12:18:21.887Z,18
2022-12-15T12:28:32.515Z,26
2022-12-15T12:41:37.472Z,23
2022-12-15T12:51:44.601Z,22
2022-12-15T13:01:51.528Z,24
2022-12-15T13:11:56.452Z,22
2022-12-15T13:21:02.247Z,25
2022-12-15T13:31:07.373Z,31
2022-12-15T13:41:11.689Z,27
2022-12-15T13:51:21.550Z,43
2022-12-15T13:55:27.436Z,35
2022-12-15T14:05:26.390Z,29
2022-12-15T14:15:36.477Z,44
2022-12-15T14:25:42.442Z,29
2022-12-15T14:35:49.385Z,30
2022-12-15T14:48:13.923Z,33
2022-12-15T14:58:33.592Z,28
2022-12-15T15:08:39.146Z,28
2022-12-15T15:18:46.306Z,34
2022-12-15T15:28:50.905Z,38
2022-12-15T15:38:59.474Z,35
2022-12-15T15:49:05.217Z,35
2022-12-15T15:59:12.386Z,61
2022-12-15T16:09:17.594Z,40
2022-12-15T16:19:21.801Z,41
2022-12-15T16:29:26.055Z,47
2022-12-15T16:39:32.490Z,44
2022-12-15T16:49:40.390Z,39
2022-12-15T17:00:18.419Z,40
2022-12-15T17:10:11.180Z,42
2022-12-15T17:21:02.917Z,39
2022-12-15T17:30:56.314Z,45
2022-12-15T17:41:02.760Z,47
2022-12-15T17:51:08.365Z,46
2022-12-15T18:01:19.918Z,44
2022-12-15T18:11:21.319Z,42
2022-12-15T18:21:26.925Z,38
2022-12-15T18:31:31.844Z,36
2022-12-15T18:41:38.114Z,30
2022-12-15T18:51:44.553Z,31
2022-12-15T19:01:51.170Z,30
2022-12-15T19:11:56.732Z,27
2022-12-15T19:22:02.500Z,27
2022-12-15T19:32:08.031Z,32
2022-12-15T19:42:13.283Z,31
2022-12-15T19:52:16.413Z,31
2022-12-15T20:02:23.461Z,31
2022-12-15T20:12:28.600Z,26
2022-12-15T20:22:35.165Z,29
2022-12-15T20:32:39.828Z,29
2022-12-15T20:42:44.334Z,33
2022-12-15T20:52:50.354Z,30
2022-12-15T21:02:58.203Z,30
2022-12-15T21:13:01.379Z,30
2022-12-15T21:23:26.253Z,34
2022-12-15T21:33:31.642Z,32
2022-12-15T21:43:36.009Z,34
2022-12-15T21:53:42.187Z,33
2022-12-15T22:03:47.344Z,33
2022-12-15T22:13:51.268Z,35
2022-12-15T22:23:57.333Z,35
2022-12-15T22:34:07.147Z,37
2022-12-15T22:44:08.997Z,33
2022-12-15T22:54:14.476Z,37
2022-12-15T23:04:22.105Z,35
2022-12-15T23:14:26.521Z,35
2022-12-15T23:24:33.827Z,38
2022-12-15T23:34:39.437Z,35
2022-12-15T23:44:46.272Z,35
2022-12-15T23:54:51.525Z,34
